createdAt,value
2023-12-09T00:00:41.660Z,66.10
2023-12-09T00:03:08.799Z,65.63
2023-12-09T00:05:36.009Z,58.90
2023-12-09T00:08:02.634Z,65.90
2023-12-09T00:10:29.412Z,78.30
2023-12-09T00:12:56.235Z,68.50
2023-12-09T00:15:22.819Z,75.43
2023-12-09T00:17:49.418Z,65.93
2023-12-09T00:20:17.146Z,67.77
2023-12-09T00:22:43.725Z,62.80
2023-12-09T00:25:10.409Z,65.37
2023-12-09T00:27:36.994Z,61.53
2023-12-09T00:30:03.639Z,69.37
2023-12-09T00:32:30.457Z,68.33
2023-12-09T00:34:57.289Z,62.80
2023-12-09T00:37:24.064Z,66.33
2023-12-09T00:39:50.738Z,71.53
2023-12-09T00:42:18.087Z,69.10
2023-12-09T00:44:44.689Z,63.20
2023-12-09T00:47:11.223Z,66.40
2023-12-09T00:49:39.102Z,71.57
2023-12-09T00:52:05.760Z,64.67
2023-12-09T00:54:32.304Z,71.90
2023-12-09T00:56:58.915Z,74.40
2023-12-09T00:59:25.480Z,64.53
2023-12-09T01:01:52.372Z,60.73
2023-12-09T01:04:19.351Z,61.87
2023-12-09T01:06:46.015Z,72.23
2023-12-09T01:09:13.029Z,64.47
2023-12-09T01:11:39.753Z,67.03
2023-12-09T01:14:06.364Z,65.50
2023-12-09T01:16:32.972Z,77.10
2023-12-09T01:18:59.562Z,67.00
2023-12-09T01:21:26.222Z,66.13
2023-12-09T01:23:52.827Z,65.23
2023-12-09T01:26:19.445Z,67.53
2023-12-09T01:28:45.995Z,65.73
2023-12-09T01:31:12.561Z,66.63
2023-12-09T01:33:39.537Z,71.50
2023-12-09T01:36:06.387Z,65.13
2023-12-09T01:38:32.964Z,69.70
2023-12-09T01:40:59.492Z,70.37
2023-12-09T01:43:26.058Z,67.47
2023-12-09T01:45:53.109Z,67.13
2023-12-09T01:48:20.312Z,71.73
2023-12-09T01:50:47.068Z,70.23
2023-12-09T01:53:13.625Z,69.97
2023-12-09T01:55:40.387Z,65.43
2023-12-09T01:58:06.936Z,60.63
2023-12-09T02:00:33.946Z,73.43
2023-12-09T02:03:00.848Z,66.33
2023-12-09T02:05:27.899Z,67.50
2023-12-09T02:07:54.501Z,73.13
2023-12-09T02:10:21.061Z,68.57
2023-12-09T02:12:53.617Z,76.57
2023-12-09T02:15:23.747Z,77.20
2023-12-09T02:18:16.928Z,75.10
2023-12-09T02:20:43.555Z,80.37
2023-12-09T02:23:10.506Z,67.27
2023-12-09T02:25:37.429Z,70.57
2023-12-09T02:28:05.547Z,76.30
2023-12-09T02:30:44.560Z,67.73
2023-12-09T02:33:11.508Z,80.37
2023-12-09T02:35:39.302Z,69.50
2023-12-09T02:38:05.847Z,79.07
2023-12-09T02:40:32.403Z,76.80
2023-12-09T02:42:58.969Z,80.00
2023-12-09T02:45:25.580Z,81.27
2023-12-09T02:47:52.287Z,83.47
2023-12-09T02:50:18.913Z,74.97
2023-12-09T02:52:45.451Z,79.37
2023-12-09T02:55:11.982Z,87.27
2023-12-09T02:57:38.529Z,81.13
2023-12-09T03:00:07.941Z,76.57
2023-12-09T03:02:34.662Z,71.80
2023-12-09T03:05:01.257Z,74.27
2023-12-09T03:07:28.862Z,81.13
2023-12-09T03:09:55.430Z,78.07
2023-12-09T03:12:21.989Z,78.00
2023-12-09T03:14:48.545Z,86.80
2023-12-09T03:17:15.093Z,76.20
2023-12-09T03:19:41.828Z,73.90
2023-12-09T03:22:08.511Z,75.50
2023-12-09T03:24:35.117Z,84.90
2023-12-09T03:27:01.743Z,85.93
2023-12-09T03:29:28.345Z,74.87
2023-12-09T03:31:54.944Z,78.17
2023-12-09T03:34:21.780Z,72.83
2023-12-09T03:36:48.405Z,71.80
2023-12-09T03:39:15.034Z,73.73
2023-12-09T03:41:41.641Z,74.83
2023-12-09T03:44:08.211Z,71.87
2023-12-09T03:46:34.783Z,77.17
2023-12-09T03:49:01.487Z,67.43
2023-12-09T03:51:28.298Z,65.47
2023-12-09T03:53:55.415Z,69.40
2023-12-09T03:56:23.090Z,67.40
2023-12-09T03:58:49.858Z,72.40
2023-12-09T04:01:16.467Z,73.63
2023-12-09T04:03:44.207Z,67.97
2023-12-09T04:06:10.850Z,72.30
2023-12-09T04:08:37.412Z,71.53
2023-12-09T04:11:04.921Z,67.00
2023-12-09T04:13:31.535Z,63.17
2023-12-09T04:15:58.039Z,66.80
2023-12-09T04:18:24.722Z,75.87
2023-12-09T04:20:51.352Z,113.33
2023-12-09T04:23:17.973Z,101.30
2023-12-09T04:25:44.515Z,94.63
2023-12-09T04:28:11.074Z,95.00
2023-12-09T04:30:38.544Z,89.53
2023-12-09T04:33:05.326Z,92.70
2023-12-09T04:35:32.099Z,106.00
2023-12-09T04:37:58.640Z,104.47
2023-12-09T04:40:25.259Z,108.77
2023-12-09T04:42:51.779Z,120.80
2023-12-09T04:45:19.461Z,88.90
2023-12-09T04:47:46.104Z,83.93
2023-12-09T04:50:12.696Z,85.83
2023-12-09T04:52:39.274Z,99.27
2023-12-09T04:55:06.034Z,94.77
2023-12-09T04:57:32.822Z,87.43
2023-12-09T04:59:59.644Z,83.33
2023-12-09T05:02:26.707Z,81.30
2023-12-09T05:04:54.268Z,78.10
2023-12-09T05:07:27.822Z,78.13
2023-12-09T05:09:54.414Z,86.40
2023-12-09T05:12:21.056Z,86.53
2023-12-09T05:14:47.626Z,78.37
2023-12-09T05:17:14.251Z,86.90
2023-12-09T05:19:41.371Z,81.13
2023-12-09T05:22:08.073Z,80.53
2023-12-09T05:24:34.640Z,74.30
2023-12-09T05:27:01.587Z,81.80
2023-12-09T05:29:28.180Z,71.37
2023-12-09T05:31:54.725Z,73.47
2023-12-09T05:34:21.330Z,85.67
2023-12-09T05:36:47.874Z,80.33
2023-12-09T05:39:15.458Z,69.70
2023-12-09T05:41:43.236Z,74.97
2023-12-09T05:44:09.839Z,75.60
2023-12-09T05:46:37.728Z,78.47
2023-12-09T05:49:04.520Z,81.37
2023-12-09T05:51:31.386Z,78.73
2023-12-09T05:53:58.128Z,83.23
2023-12-09T05:56:24.712Z,82.77
2023-12-09T05:58:51.275Z,78.83
2023-12-09T06:01:18.288Z,80.30
2023-12-09T06:03:44.946Z,80.57
2023-12-09T06:06:11.692Z,85.87
2023-12-09T06:08:38.564Z,81.90
2023-12-09T06:11:05.153Z,79.03
2023-12-09T06:13:32.209Z,86.97
2023-12-09T06:15:58.775Z,75.77
2023-12-09T06:18:25.868Z,88.47
2023-12-09T06:20:52.480Z,99.33
2023-12-09T06:23:19.129Z,87.07
2023-12-09T06:25:45.767Z,84.43
2023-12-09T06:28:12.272Z,80.80
2023-12-09T06:30:39.012Z,80.40
2023-12-09T06:33:05.927Z,92.83
2023-12-09T06:35:32.569Z,84.03
2023-12-09T06:37:59.154Z,86.63
2023-12-09T06:40:26.165Z,89.93
2023-12-09T06:42:52.718Z,88.80
2023-12-09T06:45:19.504Z,86.27
2023-12-09T06:47:46.355Z,78.03
2023-12-09T06:50:13.065Z,82.30
2023-12-09T06:52:40.809Z,85.73
2023-12-09T06:55:07.704Z,77.60
2023-12-09T06:57:34.772Z,80.30
2023-12-09T07:00:01.865Z,78.27
2023-12-09T07:02:38.212Z,82.60
2023-12-09T07:05:14.694Z,77.33
2023-12-09T07:07:42.072Z,88.13
2023-12-09T07:10:09.190Z,81.97
2023-12-09T07:12:35.785Z,73.03
2023-12-09T07:15:02.487Z,81.63
2023-12-09T07:17:29.073Z,75.43
2023-12-09T07:19:56.616Z,76.30
2023-12-09T07:22:26.443Z,80.43
2023-12-09T07:24:53.206Z,76.27
2023-12-09T07:27:19.816Z,76.07
2023-12-09T07:29:46.426Z,77.83
2023-12-09T07:32:13.462Z,74.40
2023-12-09T07:34:40.104Z,77.93
2023-12-09T07:37:06.765Z,76.33
2023-12-09T07:39:33.332Z,74.27
2023-12-09T07:42:00.309Z,79.23
2023-12-09T07:44:26.993Z,85.20
2023-12-09T07:46:53.527Z,81.57
2023-12-09T07:49:20.165Z,80.03
2023-12-09T07:51:46.785Z,76.80
2023-12-09T07:54:13.426Z,79.73
2023-12-09T07:56:39.993Z,86.03
2023-12-09T07:59:06.607Z,88.30
2023-12-09T08:01:33.137Z,85.67
2023-12-09T08:03:59.869Z,82.43
2023-12-09T08:06:26.521Z,75.40
2023-12-09T08:08:53.178Z,81.47
2023-12-09T08:11:22.688Z,77.07
2023-12-09T08:13:49.277Z,73.87
2023-12-09T08:16:16.282Z,76.57
2023-12-09T08:18:44.579Z,76.70
2023-12-09T08:21:11.554Z,80.43
2023-12-09T08:23:39.603Z,78.13
2023-12-09T08:26:06.288Z,73.97
2023-12-09T08:28:33.039Z,82.20
2023-12-09T08:30:59.986Z,89.73
2023-12-09T08:33:26.749Z,81.33
2023-12-09T08:35:53.439Z,81.60
2023-12-09T08:38:19.986Z,77.07
2023-12-09T08:40:46.664Z,85.83
2023-12-09T08:43:13.260Z,85.50
2023-12-09T08:45:39.833Z,88.13
2023-12-09T08:48:06.883Z,90.37
2023-12-09T08:50:34.049Z,90.90
2023-12-09T08:53:00.651Z,89.87
2023-12-09T08:55:27.179Z,88.63
2023-12-09T08:57:54.066Z,90.90
2023-12-09T09:00:22.535Z,81.57
2023-12-09T09:02:49.786Z,92.87
2023-12-09T09:05:16.684Z,93.07
2023-12-09T09:07:46.536Z,93.83
2023-12-09T09:10:13.195Z,94.07
2023-12-09T09:12:39.792Z,92.47
2023-12-09T09:15:08.419Z,94.77
2023-12-09T09:17:36.671Z,90.67
2023-12-09T09:20:04.584Z,89.50
2023-12-09T09:22:31.195Z,86.87
2023-12-09T09:24:59.475Z,90.43
2023-12-09T09:27:26.948Z,91.27
2023-12-09T09:29:54.382Z,95.93
2023-12-09T09:32:21.193Z,84.20
2023-12-09T09:34:47.862Z,84.43
2023-12-09T09:37:15.845Z,91.53
2023-12-09T09:39:42.558Z,85.80
2023-12-09T09:42:20.210Z,90.60
2023-12-09T09:45:16.137Z,88.40
2023-12-09T09:47:42.906Z,96.80
2023-12-09T09:50:09.855Z,92.53
2023-12-09T09:52:37.107Z,96.33
2023-12-09T09:55:04.718Z,96.60
2023-12-09T09:57:31.414Z,86.23
2023-12-09T09:59:59.284Z,90.57
2023-12-09T10:02:26.685Z,79.40
2023-12-09T10:04:53.760Z,79.80
2023-12-09T10:07:20.542Z,70.63
2023-12-09T10:09:47.709Z,76.37
2023-12-09T10:12:14.798Z,74.00
2023-12-09T10:14:41.394Z,70.37
2023-12-09T10:17:07.988Z,71.93
2023-12-09T10:19:35.217Z,70.13
2023-12-09T10:22:02.168Z,77.07
2023-12-09T10:24:28.783Z,69.67
2023-12-09T10:26:55.446Z,78.33
2023-12-09T10:29:21.988Z,71.97
2023-12-09T10:31:48.513Z,74.27
2023-12-09T10:34:15.684Z,72.17
2023-12-09T10:36:42.312Z,74.03
2023-12-09T10:39:10.199Z,70.13
2023-12-09T10:41:36.891Z,68.60
2023-12-09T10:44:03.934Z,71.73
2023-12-09T10:46:30.940Z,72.93
2023-12-09T10:48:57.603Z,69.63
2023-12-09T10:51:24.661Z,75.37
2023-12-09T10:53:51.374Z,76.80
2023-12-09T10:56:18.011Z,71.60
2023-12-09T10:58:44.905Z,68.03
2023-12-09T11:01:11.520Z,64.47
2023-12-09T11:03:38.336Z,61.37
2023-12-09T11:06:05.487Z,54.00
2023-12-09T11:08:32.121Z,50.73
2023-12-09T11:10:58.841Z,42.77
2023-12-09T11:13:25.855Z,43.40
2023-12-09T11:16:11.582Z,36.87
2023-12-09T11:18:47.663Z,38.50
2023-12-09T11:21:15.271Z,34.97
2023-12-09T11:23:43.540Z,34.53
2023-12-09T11:26:14.058Z,32.77
2023-12-09T11:28:40.631Z,31.33
2023-12-09T11:31:08.016Z,35.47
2023-12-09T11:33:34.633Z,37.13
2023-12-09T11:36:01.489Z,34.93
2023-12-09T11:38:29.011Z,35.03
2023-12-09T11:40:55.583Z,37.43
2023-12-09T11:43:22.724Z,32.43
2023-12-09T11:45:49.305Z,37.00
2023-12-09T11:48:16.622Z,33.80
2023-12-09T11:50:43.232Z,37.43
2023-12-09T11:53:09.849Z,35.37
2023-12-09T11:55:36.620Z,36.37
2023-12-09T11:58:04.827Z,38.00
2023-12-09T12:00:31.430Z,35.67
2023-12-09T12:02:58.068Z,35.50
2023-12-09T12:05:24.954Z,33.70
2023-12-09T12:07:51.543Z,31.50
2023-12-09T12:10:18.676Z,33.13
2023-12-09T12:12:45.889Z,31.07
2023-12-09T12:15:12.718Z,30.63
2023-12-09T12:17:40.340Z,32.80
2023-12-09T12:20:07.810Z,31.47
2023-12-09T12:22:34.559Z,33.90
2023-12-09T12:25:01.121Z,31.53
2023-12-09T12:27:28.169Z,32.20
2023-12-09T12:29:54.759Z,31.13
2023-12-09T12:32:21.428Z,34.23
2023-12-09T12:34:48.407Z,31.57
2023-12-09T12:37:14.987Z,31.67
2023-12-09T12:39:41.618Z,31.70
2023-12-09T12:42:09.710Z,30.50
2023-12-09T12:44:37.015Z,31.50
2023-12-09T12:47:03.686Z,29.90
2023-12-09T12:49:36.595Z,31.70
2023-12-09T12:52:04.560Z,32.60
2023-12-09T12:54:31.219Z,32.00
2023-12-09T12:56:57.870Z,35.13
2023-12-09T12:59:24.407Z,32.43
2023-12-09T13:01:51.215Z,30.93
2023-12-09T13:04:17.851Z,31.17
2023-12-09T13:06:44.622Z,29.50
2023-12-09T13:09:13.765Z,36.97
2023-12-09T13:11:40.315Z,32.73
2023-12-09T13:14:06.921Z,29.80
2023-12-09T13:16:33.553Z,34.90
2023-12-09T13:19:00.326Z,34.60
2023-12-09T13:21:27.052Z,32.13
2023-12-09T13:23:53.794Z,37.17
2023-12-09T13:26:20.441Z,37.37
2023-12-09T13:28:47.159Z,42.50
2023-12-09T13:31:15.374Z,44.27
2023-12-09T13:33:42.296Z,46.87
2023-12-09T13:36:10.916Z,45.47
2023-12-09T13:38:37.519Z,50.67
2023-12-09T13:41:04.451Z,45.73
2023-12-09T13:43:31.096Z,44.97
2023-12-09T13:45:57.723Z,43.40
2023-12-09T13:48:24.367Z,37.40
2023-12-09T13:50:51.187Z,34.70
2023-12-09T13:53:18.268Z,35.73
2023-12-09T13:55:45.257Z,33.87
2023-12-09T13:58:11.764Z,34.77
2023-12-09T14:00:38.449Z,36.17
2023-12-09T14:03:05.094Z,40.03
2023-12-09T14:05:31.819Z,43.60
2023-12-09T14:07:58.491Z,42.57
2023-12-09T14:10:25.179Z,45.23
2023-12-09T14:12:51.859Z,47.60
2023-12-09T14:15:18.478Z,39.10
2023-12-09T14:17:45.471Z,46.07
2023-12-09T14:20:13.794Z,49.07
2023-12-09T14:22:40.477Z,52.80
2023-12-09T14:25:07.344Z,46.30
2023-12-09T14:27:35.509Z,48.33
2023-12-09T14:30:02.214Z,50.93
2023-12-09T14:32:29.140Z,52.50
2023-12-09T14:34:56.440Z,50.90
2023-12-09T14:37:23.192Z,57.43
2023-12-09T14:39:49.810Z,55.50
2023-12-09T14:42:16.366Z,51.13
2023-12-09T14:44:43.005Z,49.60
2023-12-09T14:47:09.635Z,51.57
2023-12-09T14:49:36.373Z,49.37
2023-12-09T14:52:03.154Z,45.87
2023-12-09T14:54:30.320Z,43.00
2023-12-09T14:56:57.061Z,48.47
2023-12-09T14:59:23.660Z,47.63
2023-12-09T15:01:50.285Z,47.40
2023-12-09T15:04:17.009Z,43.10
2023-12-09T15:06:45.031Z,46.60
2023-12-09T15:09:13.897Z,51.73
2023-12-09T15:11:43.595Z,48.03
2023-12-09T15:14:10.329Z,51.53
2023-12-09T15:16:36.972Z,50.83
2023-12-09T15:19:04.331Z,49.13
2023-12-09T15:21:31.305Z,49.33
2023-12-09T15:23:58.023Z,47.23
2023-12-09T15:26:24.550Z,48.73
2023-12-09T15:28:54.630Z,47.37
2023-12-09T15:31:21.612Z,51.77
2023-12-09T15:33:48.381Z,48.90
2023-12-09T15:36:15.042Z,47.30
2023-12-09T15:38:42.121Z,48.20
2023-12-09T15:41:09.026Z,42.63
2023-12-09T15:43:35.915Z,49.53
2023-12-09T15:46:02.561Z,47.17
2023-12-09T15:48:29.175Z,46.00
2023-12-09T15:50:55.858Z,42.23
2023-12-09T15:53:22.487Z,46.33
2023-12-09T15:55:49.313Z,41.17
2023-12-09T15:58:16.267Z,44.90
2023-12-09T16:00:43.023Z,40.03
2023-12-09T16:03:12.131Z,45.97
2023-12-09T16:05:38.831Z,46.53
2023-12-09T16:08:05.589Z,51.97
2023-12-09T16:10:33.264Z,46.03
2023-12-09T16:13:00.527Z,44.37
2023-12-09T16:15:27.215Z,43.03
2023-12-09T16:17:54.885Z,49.03
2023-12-09T16:20:22.108Z,52.25
2023-12-09T16:22:48.805Z,49.67
2023-12-09T16:25:15.538Z,42.50
2023-12-09T16:27:42.229Z,46.47
2023-12-09T16:30:09.188Z,42.33
2023-12-09T16:32:35.870Z,38.73
2023-12-09T16:35:03.249Z,50.92
2023-12-09T16:37:29.829Z,45.27
2023-12-09T16:39:56.508Z,50.17
2023-12-09T16:42:23.361Z,44.40
2023-12-09T16:44:50.002Z,52.97
2023-12-09T16:47:17.244Z,46.33
2023-12-09T16:49:43.928Z,47.00
2023-12-09T16:52:10.702Z,45.13
2023-12-09T16:54:37.354Z,46.30
2023-12-09T16:57:04.180Z,40.87
2023-12-09T16:59:30.857Z,44.27
2023-12-09T17:01:58.845Z,56.13
2023-12-09T17:04:25.878Z,64.17
2023-12-09T17:06:54.570Z,52.77
2023-12-09T17:09:24.542Z,60.20
2023-12-09T17:11:53.062Z,62.43
2023-12-09T17:14:20.124Z,56.70
2023-12-09T17:16:46.745Z,54.97
2023-12-09T17:19:13.938Z,55.03
2023-12-09T17:21:41.214Z,52.60
2023-12-09T17:24:07.986Z,48.23
2023-12-09T17:26:36.126Z,54.23
2023-12-09T17:29:02.822Z,57.50
2023-12-09T17:31:29.572Z,56.93
2023-12-09T17:33:56.488Z,60.93
2023-12-09T17:36:26.965Z,57.37
2023-12-09T17:38:54.165Z,62.87
2023-12-09T17:41:21.800Z,55.30
2023-12-09T17:43:49.930Z,54.80
2023-12-09T17:46:17.024Z,52.23
2023-12-09T17:48:43.848Z,47.17
2023-12-09T17:51:10.714Z,45.00
2023-12-09T17:53:37.497Z,54.97
2023-12-09T17:56:04.221Z,52.87
2023-12-09T17:58:31.656Z,58.00
2023-12-09T18:00:58.373Z,57.03
2023-12-09T18:03:25.308Z,59.23
2023-12-09T18:05:53.206Z,58.07
2023-12-09T18:08:19.988Z,64.70
2023-12-09T18:10:46.541Z,54.70
2023-12-09T18:13:14.041Z,67.57
2023-12-09T18:15:44.084Z,60.57
2023-12-09T18:18:11.612Z,57.27
2023-12-09T18:20:38.362Z,59.10
2023-12-09T18:23:05.014Z,56.53
2023-12-09T18:25:31.925Z,55.63
2023-12-09T18:27:58.489Z,57.57
2023-12-09T18:30:25.048Z,63.30
2023-12-09T18:32:51.715Z,58.90
2023-12-09T18:35:19.025Z,64.83
2023-12-09T18:37:46.388Z,61.37
2023-12-09T18:40:12.980Z,62.43
2023-12-09T18:42:39.832Z,60.20
2023-12-09T18:45:06.794Z,55.50
2023-12-09T18:47:35.256Z,54.20
2023-12-09T18:50:01.888Z,54.30
2023-12-09T18:52:28.758Z,53.07
2023-12-09T18:54:55.561Z,58.33
2023-12-09T18:57:22.059Z,63.20
2023-12-09T18:59:48.720Z,59.03
2023-12-09T19:02:15.815Z,57.87
2023-12-09T19:04:45.633Z,65.80
2023-12-09T19:07:12.435Z,63.33
2023-12-09T19:09:39.113Z,64.27
2023-12-09T19:12:06.095Z,61.20
2023-12-09T19:14:32.690Z,66.00
2023-12-09T19:16:59.454Z,68.80
2023-12-09T19:19:26.805Z,59.77
2023-12-09T19:21:53.428Z,59.10
2023-12-09T19:24:19.992Z,74.10
2023-12-09T19:26:46.584Z,67.80
2023-12-09T19:29:17.237Z,75.13
2023-12-09T19:31:47.293Z,86.37
2023-12-09T19:34:14.049Z,78.70
2023-12-09T19:36:44.807Z,87.70
2023-12-09T19:39:11.809Z,83.53
2023-12-09T19:41:38.460Z,82.63
2023-12-09T19:44:05.109Z,86.70
2023-12-09T19:46:31.739Z,84.83
2023-12-09T19:48:58.407Z,87.30
2023-12-09T19:51:25.149Z,84.00
2023-12-09T19:53:51.659Z,79.03
2023-12-09T19:56:18.300Z,90.63
2023-12-09T19:58:44.820Z,89.93
2023-12-09T20:01:11.588Z,82.67
2023-12-09T20:03:38.330Z,87.27
2023-12-09T20:06:05.647Z,85.73
2023-12-09T20:08:32.281Z,85.93
2023-12-09T20:11:00.556Z,89.20
2023-12-09T20:13:27.106Z,75.70
2023-12-09T20:15:54.200Z,87.97
2023-12-09T20:18:20.907Z,84.30
2023-12-09T20:20:47.862Z,82.77
2023-12-09T20:23:14.945Z,81.70
2023-12-09T20:25:41.571Z,75.07
2023-12-09T20:28:08.348Z,83.63
2023-12-09T20:30:39.125Z,84.60
2023-12-09T20:33:07.680Z,82.97
2023-12-09T20:35:34.527Z,90.33
2023-12-09T20:38:02.906Z,83.10
2023-12-09T20:40:29.552Z,81.67
2023-12-09T20:42:56.233Z,90.70
2023-12-09T20:45:22.835Z,82.03
2023-12-09T20:47:49.515Z,87.40
2023-12-09T20:50:16.191Z,85.17
2023-12-09T20:52:42.753Z,86.13
2023-12-09T20:55:09.797Z,96.43
2023-12-09T20:57:36.367Z,90.80
2023-12-09T21:00:03.026Z,80.93
2023-12-09T21:02:30.115Z,89.37
2023-12-09T21:04:57.016Z,87.23
2023-12-09T21:07:23.690Z,92.47
2023-12-09T21:09:50.277Z,86.07
2023-12-09T21:12:16.946Z,84.30
2023-12-09T21:14:43.515Z,83.83
2023-12-09T21:17:10.615Z,88.13
2023-12-09T21:19:37.354Z,86.37
2023-12-09T21:22:06.319Z,90.20
2023-12-09T21:24:35.413Z,86.57
2023-12-09T21:27:02.037Z,90.67
2023-12-09T21:29:28.817Z,90.37
2023-12-09T21:31:55.470Z,79.40
2023-12-09T21:34:22.065Z,87.17
2023-12-09T21:36:48.824Z,85.57
2023-12-09T21:39:15.740Z,88.80
2023-12-09T21:41:42.301Z,89.80
2023-12-09T21:44:09.340Z,89.97
2023-12-09T21:46:35.902Z,93.47
2023-12-09T21:49:02.660Z,93.70
2023-12-09T21:51:30.723Z,101.10
2023-12-09T21:53:57.298Z,108.40
2023-12-09T21:56:24.370Z,111.90
2023-12-09T21:58:51.150Z,107.40
2023-12-09T22:01:17.994Z,110.33
2023-12-09T22:03:44.649Z,109.37
2023-12-09T22:06:11.495Z,101.87
2023-12-09T22:08:38.098Z,105.53
2023-12-09T22:11:04.933Z,108.80
2023-12-09T22:13:33.035Z,100.70
2023-12-09T22:15:59.772Z,100.80
2023-12-09T22:18:26.560Z,100.20
2023-12-09T22:20:53.183Z,100.37
2023-12-09T22:23:19.763Z,102.40
2023-12-09T22:25:46.280Z,106.77
2023-12-09T22:28:12.902Z,106.77
2023-12-09T22:30:39.593Z,97.00
2023-12-09T22:33:06.399Z,100.33
2023-12-09T22:35:34.065Z,103.53
2023-12-09T22:38:00.634Z,98.23
2023-12-09T22:40:27.986Z,98.73
2023-12-09T22:42:55.968Z,100.17
2023-12-09T22:45:22.584Z,90.87
2023-12-09T22:47:49.301Z,104.03
2023-12-09T22:50:15.980Z,94.23
2023-12-09T22:52:42.478Z,101.80
2023-12-09T22:55:09.110Z,101.93
2023-12-09T22:57:35.665Z,99.47
2023-12-09T23:00:02.227Z,100.50
2023-12-09T23:02:29.162Z,107.67
2023-12-09T23:04:55.853Z,97.90
2023-12-09T23:07:22.417Z,100.13
2023-12-09T23:09:51.369Z,101.20
2023-12-09T23:12:18.121Z,92.23
2023-12-09T23:14:44.667Z,100.13
2023-12-09T23:17:11.269Z,93.57
2023-12-09T23:19:37.843Z,98.63
2023-12-09T23:22:04.923Z,98.10
2023-12-09T23:24:32.788Z,90.53
2023-12-09T23:26:59.383Z,87.80
2023-12-09T23:29:25.956Z,89.73
2023-12-09T23:31:52.487Z,91.73
2023-12-09T23:34:21.246Z,86.53
2023-12-09T23:36:50.066Z,91.27
2023-12-09T23:39:16.690Z,91.87
2023-12-09T23:41:43.292Z,95.03
2023-12-09T23:44:09.884Z,98.00
2023-12-09T23:46:36.457Z,102.80
2023-12-09T23:49:03.341Z,95.70
2023-12-09T23:51:29.962Z,105.50
2023-12-09T23:53:56.540Z,101.77
2023-12-09T23:56:24.352Z,95.93
2023-12-09T23:58:50.917Z,95.53
